Time,TemperatureF,DewpointF,PressureIn,WindDirection,WindDirectionDegrees,WindSpeedMPH,WindSpeedGustMPH,Humidity,HourlyPrecipIn,Conditions,Clouds,dailyrainin,SoftwareType,DateUTC
2017-06-25 00:11:00,71.0,70.0,29.99,East,80,0.0,0.0,97,0.01,,,0.00,weatherlink.com 1.10,2017-06-25 04:11:00,
2017-06-25 00:26:00,71.0,70.0,30.00,East,80,0.0,0.0,97,0.01,,,0.00,weatherlink.com 1.10,2017-06-25 04:26:00,
2017-06-25 00:41:00,71.0,70.0,29.99,East,80,0.0,0.0,97,0.01,,,0.00,weatherlink.com 1.10,2017-06-25 04:41:00,
2017-06-25 00:56:00,71.1,71.0,29.99,East,80,0.0,0.0,98,0.00,,,0.00,weatherlink.com 1.10,2017-06-25 04:56:00,
2017-06-25 01:11:00,70.9,70.0,29.99,East,80,0.0,0.0,97,0.00,,,0.00,weatherlink.com 1.10,2017-06-25 05:11:00,
2017-06-25 01:26:00,70.9,70.0,29.99,East,80,0.0,0.0,98,0.00,,,0.00,weatherlink.com 1.10,2017-06-25 05:26:00,
2017-06-25 01:41:00,70.9,70.0,29.98,East,80,0.0,0.0,98,0.00,,,0.00,weatherlink.com 1.10,2017-06-25 05:41:00,
2017-06-25 01:56:00,70.7,70.0,29.99,East,80,0.0,0.0,97,0.00,,,0.00,weatherlink.com 1.10,2017-06-25 05:56:00,
2017-06-25 02:11:00,70.6,70.0,29.99,East,80,0.0,0.0,98,0.00,,,0.00,weatherlink.com 1.10,2017-06-25 06:11:00,
2017-06-25 02:26:00,70.6,70.0,29.99,East,80,0.0,0.0,98,0.00,,,0.00,weatherlink.com 1.10,2017-06-25 06:26:00,
2017-06-25 02:41:00,70.6,70.0,29.99,East,80,0.0,0.0,98,0.00,,,0.00,weatherlink.com 1.10,2017-06-25 06:41:00,
2017-06-25 02:56:00,70.6,70.0,29.99,East,80,0.0,0.0,98,0.00,,,0.00,weatherlink.com 1.10,2017-06-25 06:56:00,
2017-06-25 03:11:00,70.7,70.0,29.98,East,80,0.0,0.0,98,0.00,,,0.00,weatherlink.com 1.10,2017-06-25 07:11:00,
2017-06-25 03:26:00,70.6,70.0,29.98,East,80,0.0,0.0,98,0.00,,,0.00,weatherlink.com 1.10,2017-06-25 07:26:00,
2017-06-25 03:41:00,70.4,70.0,29.98,East,80,0.0,0.0,98,0.00,,,0.00,weatherlink.com 1.10,2017-06-25 07:41:00,
2017-06-25 03:56:00,70.4,70.0,29.98,East,80,0.0,0.0,98,0.00,,,0.00,weatherlink.com 1.10,2017-06-25 07:56:00,
2017-06-25 04:11:00,70.4,70.0,29.97,East,80,0.0,0.0,98,0.00,,,0.00,weatherlink.com 1.10,2017-06-25 08:11:00,
2017-06-25 04:26:00,70.3,70.0,29.98,East,80,0.0,0.0,98,0.00,,,0.00,weatherlink.com 1.10,2017-06-25 08:26:00,
2017-06-25 04:41:00,70.2,70.0,29.98,East,80,0.0,0.0,98,0.00,,,0.00,weatherlink.com 1.10,2017-06-25 08:41:00,
2017-06-25 04:56:00,70.2,70.0,29.98,East,80,0.0,0.0,98,0.00,,,0.00,weatherlink.com 1.10,2017-06-25 08:56:00,
2017-06-25 05:11:00,70.3,70.0,29.99,East,80,0.0,0.0,98,0.00,,,0.00,weatherlink.com 1.10,2017-06-25 09:11:00,
2017-06-25 05:26:00,70.3,70.0,29.99,East,80,0.0,0.0,98,0.00,,,0.00,weatherlink.com 1.10,2017-06-25 09:26:00,
2017-06-25 05:41:00,70.4,70.0,30.00,East,80,0.0,0.0,98,0.00,,,0.00,weatherlink.com 1.10,2017-06-25 09:41:00,
2017-06-25 05:56:00,70.4,70.0,30.00,East,80,0.0,0.0,98,0.00,,,0.00,weatherlink.com 1.10,2017-06-25 09:56:00,
2017-06-25 06:11:00,70.5,70.0,30.00,East,80,0.0,0.0,98,0.00,,,0.00,weatherlink.com 1.10,2017-06-25 10:11:00,
2017-06-25 06:26:00,70.6,70.0,30.01,East,80,0.0,0.0,98,0.00,,,0.00,weatherlink.com 1.10,2017-06-25 10:26:00,
2017-06-25 06:41:00,70.6,70.0,30.01,East,80,0.0,0.0,98,0.00,,,0.00,weatherlink.com 1.10,2017-06-25 10:41:00,
2017-06-25 06:56:00,70.6,70.0,30.01,East,80,0.0,0.0,98,0.00,,,0.00,weatherlink.com 1.10,2017-06-25 10:56:00,
2017-06-25 07:11:00,70.7,70.0,30.02,East,80,0.0,0.0,98,0.00,,,0.00,weatherlink.com 1.10,2017-06-25 11:11:00,
2017-06-25 07:26:00,70.9,70.0,30.02,East,80,0.0,0.0,98,0.00,,,0.00,weatherlink.com 1.10,2017-06-25 11:26:00,
2017-06-25 07:41:00,71.1,71.0,30.02,East,80,0.0,0.0,98,0.00,,,0.00,weatherlink.com 1.10,2017-06-25 11:41:00,
2017-06-25 07:56:00,71.3,71.0,30.02,East,80,0.0,0.0,98,0.00,,,0.00,weatherlink.com 1.10,2017-06-25 11:56:00,
2017-06-25 08:13:00,71.4,71.0,30.02,East,80,0.0,0.0,98,0.00,,,0.00,weatherlink.com 1.10,2017-06-25 12:13:00,
2017-06-25 08:26:00,71.6,71.0,30.03,East,80,0.0,0.0,98,0.00,,,0.00,weatherlink.com 1.10,2017-06-25 12:26:00,
2017-06-25 08:41:00,72.1,72.0,30.03,NE,51,0.0,0.0,98,0.00,,,0.00,weatherlink.com 1.10,2017-06-25 12:41:00,
2017-06-25 08:56:00,72.1,72.0,30.03,NE,51,0.0,0.0,98,0.00,,,0.00,weatherlink.com 1.10,2017-06-25 12:56:00,
2017-06-25 09:11:00,72.3,72.0,30.03,NE,51,0.0,0.0,98,0.00,,,0.00,weatherlink.com 1.10,2017-06-25 13:11:00,
2017-06-25 09:26:00,72.6,72.0,30.04,North,355,0.0,0.0,98,0.00,,,0.00,weatherlink.com 1.10,2017-06-25 13:26:00,
2017-06-25 09:41:00,73.0,72.0,30.04,NNW,337,0.0,0.0,96,0.00,,,0.00,weatherlink.com 1.10,2017-06-25 13:41:00,
2017-06-25 09:56:00,73.5,71.0,30.03,NNW,337,0.0,0.0,93,0.00,,,0.00,weatherlink.com 1.10,2017-06-25 13:56:00,
2017-06-25 10:11:00,74.2,72.0,30.04,North,355,0.0,0.0,91,0.00,,,0.00,weatherlink.com 1.10,2017-06-25 14:11:00,
2017-06-25 10:26:00,74.8,72.0,30.05,North,355,0.0,0.0,90,0.00,,,0.00,weatherlink.com 1.10,2017-06-25 14:26:00,
2017-06-25 10:41:00,75.8,71.0,30.05,WNW,288,0.0,0.0,85,0.00,,,0.00,weatherlink.com 1.10,2017-06-25 14:41:00,
2017-06-25 10:56:00,76.2,71.0,30.05,WNW,288,0.0,0.0,83,0.00,,,0.00,weatherlink.com 1.10,2017-06-25 14:56:00,
2017-06-25 11:11:00,76.9,70.0,30.06,North,355,0.0,0.0,80,0.00,,,0.00,weatherlink.com 1.10,2017-06-25 15:11:00,
2017-06-25 11:26:00,77.0,70.0,30.06,WNW,282,0.0,0.0,78,0.00,,,0.00,weatherlink.com 1.10,2017-06-25 15:26:00,
2017-06-25 11:41:00,77.6,70.0,30.06,NW,315,0.0,1.0,78,0.00,,,0.00,weatherlink.com 1.10,2017-06-25 15:41:00,
2017-06-25 11:56:00,78.2,70.0,30.06,North,9,0.0,0.0,75,0.00,,,0.00,weatherlink.com 1.10,2017-06-25 15:56:00,
2017-06-25 12:11:00,78.9,70.0,30.06,NNE,22,0.0,0.0,73,0.00,,,0.00,weatherlink.com 1.10,2017-06-25 16:11:00,
2017-06-25 12:26:00,80.0,69.0,30.06,ESE,123,0.0,3.0,68,0.00,,,0.00,weatherlink.com 1.10,2017-06-25 16:26:00,
2017-06-25 12:41:00,79.9,69.0,30.06,ENE,71,0.0,2.0,69,0.00,,,0.00,weatherlink.com 1.10,2017-06-25 16:41:00,
2017-06-25 12:56:00,80.1,68.0,30.06,WNW,297,0.0,2.0,66,0.00,,,0.00,weatherlink.com 1.10,2017-06-25 16:56:00,
2017-06-25 13:11:00,80.4,68.0,30.05,NW,310,0.0,0.0,65,0.00,,,0.00,weatherlink.com 1.10,2017-06-25 17:11:00,
2017-06-25 13:26:00,80.8,67.0,30.05,NNE,28,0.0,0.0,64,0.00,,,0.00,weatherlink.com 1.10,2017-06-25 17:26:00,
2017-06-25 13:41:00,81.2,68.0,30.05,WNW,296,0.0,0.0,64,0.00,,,0.00,weatherlink.com 1.10,2017-06-25 17:41:00,
2017-06-25 13:56:00,81.7,66.0,30.04,WSW,255,0.0,0.0,59,0.00,,,0.00,weatherlink.com 1.10,2017-06-25 17:56:00,
2017-06-25 14:12:00,81.8,66.0,30.04,West,276,0.0,0.0,60,0.00,,,0.00,weatherlink.com 1.10,2017-06-25 18:12:00,
2017-06-25 14:27:00,81.9,68.0,30.03,West,277,0.0,0.0,62,0.00,,,0.00,weatherlink.com 1.10,2017-06-25 18:27:00,
2017-06-25 14:42:00,82.3,66.0,30.03,NW,306,0.0,2.0,58,0.00,,,0.00,weatherlink.com 1.10,2017-06-25 18:42:00,
2017-06-25 14:57:00,82.7,66.0,30.03,ENE,65,0.0,0.0,58,0.00,,,0.00,weatherlink.com 1.10,2017-06-25 18:57:00,
2017-06-25 15:12:00,82.7,66.0,30.02,West,280,0.0,2.0,57,0.00,,,0.00,weatherlink.com 1.10,2017-06-25 19:12:00,
2017-06-25 15:27:00,82.6,65.0,30.02,WNW,287,0.0,0.0,55,0.00,,,0.00,weatherlink.com 1.10,2017-06-25 19:27:00,
2017-06-25 15:42:00,82.2,62.0,30.02,West,279,0.0,0.0,51,0.00,,,0.00,weatherlink.com 1.10,2017-06-25 19:42:00,
2017-06-25 15:57:00,81.9,65.0,30.02,WNW,294,0.0,0.0,56,0.00,,,0.00,weatherlink.com 1.10,2017-06-25 19:57:00,
2017-06-25 16:12:00,81.4,64.0,30.02,West,275,0.0,0.0,56,0.00,,,0.00,weatherlink.com 1.10,2017-06-25 20:12:00,
2017-06-25 16:27:00,81.2,66.0,30.01,West,281,0.0,0.0,60,0.00,,,0.00,weatherlink.com 1.10,2017-06-25 20:27:00,
2017-06-25 16:42:00,81.0,67.0,30.02,NW,321,0.0,1.0,62,0.00,,,0.00,weatherlink.com 1.10,2017-06-25 20:42:00,
2017-06-25 16:57:00,80.6,68.0,30.02,NW,307,0.0,0.0,66,0.00,,,0.00,weatherlink.com 1.10,2017-06-25 20:57:00,
2017-06-25 17:12:00,80.1,68.0,30.01,NW,307,0.0,0.0,67,0.00,,,0.00,weatherlink.com 1.10,2017-06-25 21:12:00,
2017-06-25 17:27:00,79.7,69.0,30.02,NW,307,0.0,0.0,70,0.00,,,0.00,weatherlink.com 1.10,2017-06-25 21:27:00,
2017-06-25 17:42:00,79.4,68.0,30.01,NW,307,0.0,0.0,69,0.00,,,0.00,weatherlink.com 1.10,2017-06-25 21:42:00,
2017-06-25 17:57:00,78.7,70.0,30.02,NW,307,0.0,0.0,74,0.00,,,0.00,weatherlink.com 1.10,2017-06-25 21:57:00,
2017-06-25 18:12:00,78.4,69.0,30.01,NW,307,0.0,0.0,72,0.00,,,0.00,weatherlink.com 1.10,2017-06-25 22:12:00,